createdAt,value
2022-12-24T00:01:38.010Z,52.70
2022-12-24T00:04:06.461Z,51.54
2022-12-24T00:06:35.355Z,50.84
2022-12-24T00:09:03.894Z,51.34
2022-12-24T00:11:32.360Z,52.09
2022-12-24T00:14:00.878Z,50.86
2022-12-24T00:16:29.487Z,52.03
2022-12-24T00:18:57.983Z,52.14
2022-12-24T00:21:26.436Z,51.57
2022-12-24T00:23:54.877Z,51.57
2022-12-24T00:26:23.324Z,51.70
2022-12-24T00:28:51.716Z,52.09
2022-12-24T00:31:20.300Z,53.39
2022-12-24T00:33:49.159Z,53.04
2022-12-24T00:36:19.068Z,51.99
2022-12-24T00:38:47.849Z,52.75
2022-12-24T00:41:26.159Z,51.48
2022-12-24T00:44:06.147Z,53.04
2022-12-24T00:46:35.214Z,52.04
2022-12-24T00:49:05.107Z,51.41
2022-12-24T00:51:35.516Z,51.24
2022-12-24T00:54:04.772Z,51.29
2022-12-24T00:56:33.939Z,51.62
2022-12-24T00:59:02.446Z,51.85
2022-12-24T01:01:30.926Z,51.49
2022-12-24T01:04:17.971Z,52.24
2022-12-24T01:06:46.555Z,52.50
2022-12-24T01:09:15.008Z,52.30
2022-12-24T01:11:43.594Z,52.92
2022-12-24T01:14:12.135Z,51.46
2022-12-24T01:16:40.583Z,51.17
2022-12-24T01:19:09.223Z,52.62
2022-12-24T01:21:37.756Z,51.11
2022-12-24T01:24:06.409Z,50.61
2022-12-24T01:26:34.747Z,50.81
2022-12-24T01:29:03.184Z,50.90
2022-12-24T01:31:31.609Z,50.76
2022-12-24T01:34:00.208Z,51.15
2022-12-24T01:36:28.666Z,51.08
2022-12-24T01:38:57.136Z,50.62
2022-12-24T01:41:44.624Z,50.42
2022-12-24T01:44:36.978Z,50.24
2022-12-24T01:47:16.311Z,50.44
2022-12-24T01:49:53.563Z,50.07
2022-12-24T01:52:26.934Z,51.32
2022-12-24T01:55:01.061Z,51.13
2022-12-24T01:57:33.384Z,51.64
2022-12-24T02:00:06.240Z,52.85
2022-12-24T02:02:35.362Z,52.59
2022-12-24T02:05:09.935Z,51.56
2022-12-24T02:07:39.085Z,53.44
2022-12-24T02:10:10.086Z,52.53
2022-12-24T02:12:40.487Z,52.46
2022-12-24T02:15:11.929Z,52.14
2022-12-24T02:17:54.574Z,51.34
2022-12-24T02:20:53.807Z,53.01
2022-12-24T02:23:50.293Z,51.83
2022-12-24T02:26:30.909Z,53.00
2022-12-24T02:29:30.293Z,52.37
2022-12-24T02:32:01.686Z,53.74
2022-12-24T02:34:40.391Z,53.56
2022-12-24T02:37:44.578Z,52.05
2022-12-24T02:40:33.487Z,51.56
2022-12-24T02:43:08.290Z,51.64
2022-12-24T02:45:40.247Z,52.13
2022-12-24T02:48:10.296Z,51.79
2022-12-24T02:50:38.717Z,53.04
2022-12-24T02:53:09.701Z,53.32
2022-12-24T02:56:12.213Z,51.79
2022-12-24T02:58:59.168Z,52.29
2022-12-24T03:01:36.831Z,51.92
2022-12-24T03:04:16.515Z,51.74
2022-12-24T03:06:58.010Z,52.65
2022-12-24T03:09:52.409Z,52.43
2022-12-24T03:12:26.723Z,51.91
2022-12-24T03:14:55.680Z,52.74
2022-12-24T03:17:24.173Z,52.63
2022-12-24T03:19:55.312Z,53.02
2022-12-24T03:22:25.589Z,52.24
2022-12-24T03:24:54.032Z,51.62
2022-12-24T03:27:25.072Z,51.22
2022-12-24T03:29:53.677Z,52.68
2022-12-24T03:32:28.767Z,52.85
2022-12-24T03:34:57.322Z,52.08
2022-12-24T03:37:26.732Z,52.76
2022-12-24T03:39:55.302Z,54.26
2022-12-24T03:42:23.675Z,53.08
2022-12-24T03:44:52.130Z,53.90
2022-12-24T03:47:20.575Z,52.29
2022-12-24T03:49:49.108Z,51.92
2022-12-24T03:52:17.503Z,54.07
2022-12-24T03:54:45.912Z,53.33
2022-12-24T03:57:14.308Z,53.63
2022-12-24T03:59:42.695Z,52.93
2022-12-24T04:02:11.236Z,53.46
2022-12-24T04:04:39.831Z,54.38
2022-12-24T04:07:08.443Z,52.90
2022-12-24T04:09:36.986Z,54.79
2022-12-24T04:12:05.533Z,53.96
2022-12-24T04:14:34.031Z,53.80
2022-12-24T04:17:02.551Z,52.96
2022-12-24T04:19:30.998Z,53.18
2022-12-24T04:21:59.500Z,54.45
2022-12-24T04:24:27.975Z,53.70
2022-12-24T04:26:56.422Z,52.92
2022-12-24T04:29:25.009Z,53.25
2022-12-24T04:31:53.588Z,53.80
2022-12-24T04:34:22.113Z,53.01
2022-12-24T04:36:50.522Z,52.46
2022-12-24T04:39:18.938Z,54.06
2022-12-24T04:41:47.459Z,53.55
2022-12-24T04:44:15.876Z,53.71
2022-12-24T04:46:44.452Z,53.33
2022-12-24T04:49:12.988Z,54.22
2022-12-24T04:51:41.386Z,54.38
2022-12-24T04:54:09.933Z,53.67
2022-12-24T04:56:38.483Z,54.32
2022-12-24T04:59:06.938Z,53.80
2022-12-24T05:01:35.613Z,54.02
2022-12-24T05:04:04.170Z,52.92
2022-12-24T05:06:33.140Z,53.58
2022-12-24T05:09:01.694Z,53.47
2022-12-24T05:11:30.828Z,52.83
2022-12-24T05:13:59.449Z,53.69
2022-12-24T05:16:27.926Z,53.31
2022-12-24T05:18:56.363Z,52.83
2022-12-24T05:21:25.343Z,54.68
2022-12-24T05:24:12.445Z,54.39
2022-12-24T05:26:44.808Z,53.50
2022-12-24T05:29:13.373Z,53.83
2022-12-24T05:31:43.532Z,52.83
2022-12-24T05:34:13.715Z,52.57
2022-12-24T05:36:43.134Z,52.63
2022-12-24T05:39:16.290Z,52.29
2022-12-24T05:41:46.078Z,52.31
2022-12-24T05:44:16.226Z,52.63
2022-12-24T05:46:45.270Z,52.94
2022-12-24T05:49:14.322Z,52.99
2022-12-24T05:51:42.729Z,52.90
2022-12-24T05:54:11.492Z,53.08
2022-12-24T05:56:39.922Z,52.35
2022-12-24T05:59:08.350Z,51.77
2022-12-24T06:01:36.831Z,52.12
2022-12-24T06:04:05.424Z,52.11
2022-12-24T06:06:33.883Z,52.00
2022-12-24T06:09:02.268Z,53.39
2022-12-24T06:11:31.045Z,52.80
2022-12-24T06:13:59.534Z,52.39
2022-12-24T06:16:28.108Z,51.83
2022-12-24T06:18:56.598Z,51.82
2022-12-24T06:21:25.109Z,51.79
2022-12-24T06:23:53.531Z,51.40
2022-12-24T06:26:22.930Z,51.16
2022-12-24T06:28:52.290Z,51.12
2022-12-24T06:31:23.248Z,51.88
2022-12-24T06:33:52.740Z,51.72
2022-12-24T06:36:25.519Z,52.05
2022-12-24T06:38:55.115Z,51.93
2022-12-24T06:41:24.159Z,51.86
2022-12-24T06:43:53.316Z,53.08
2022-12-24T06:46:22.258Z,52.55
2022-12-24T06:48:50.937Z,53.08
2022-12-24T06:51:19.875Z,52.82
2022-12-24T06:53:50.755Z,52.29
2022-12-24T06:56:20.177Z,51.96
2022-12-24T06:58:49.159Z,52.71
2022-12-24T07:01:19.550Z,52.07
2022-12-24T07:03:48.582Z,51.63
2022-12-24T07:06:25.372Z,51.68
2022-12-24T07:08:53.895Z,51.73
2022-12-24T07:11:24.176Z,51.69
2022-12-24T07:13:52.677Z,52.30
2022-12-24T07:16:21.790Z,52.21
2022-12-24T07:18:50.361Z,52.44
2022-12-24T07:21:18.863Z,51.92
2022-12-24T07:23:47.426Z,54.00
2022-12-24T07:26:15.800Z,54.28
2022-12-24T07:28:44.331Z,52.58
2022-12-24T07:31:12.818Z,53.05
2022-12-24T07:33:41.386Z,52.63
2022-12-24T07:36:15.866Z,52.15
2022-12-24T07:38:44.536Z,52.19
2022-12-24T07:41:13.428Z,52.21
2022-12-24T07:43:41.811Z,52.76
2022-12-24T07:46:10.412Z,53.49
2022-12-24T07:48:39.013Z,54.49
2022-12-24T07:51:07.574Z,53.06
2022-12-24T07:53:36.070Z,53.32
2022-12-24T07:56:09.027Z,53.17
2022-12-24T07:58:41.343Z,52.30
2022-12-24T08:01:10.348Z,53.54
2022-12-24T08:03:39.345Z,52.80
2022-12-24T08:06:08.371Z,52.80
2022-12-24T08:08:37.697Z,52.81
2022-12-24T08:11:06.973Z,53.70
2022-12-24T08:13:35.695Z,53.06
2022-12-24T08:16:05.406Z,52.78
2022-12-24T08:18:34.011Z,52.10
2022-12-24T08:21:02.966Z,51.73
2022-12-24T08:23:31.391Z,53.46
2022-12-24T08:25:59.998Z,53.76
2022-12-24T08:28:29.278Z,52.39
2022-12-24T08:30:59.024Z,53.45
2022-12-24T08:33:27.545Z,52.28
2022-12-24T08:35:56.296Z,52.05
2022-12-24T08:38:24.825Z,52.48
2022-12-24T08:40:54.258Z,54.12
2022-12-24T08:43:23.152Z,52.98
2022-12-24T08:45:51.802Z,53.27
2022-12-24T08:48:20.438Z,52.84
2022-12-24T08:50:48.924Z,53.36
2022-12-24T08:53:17.451Z,52.50
2022-12-24T08:55:49.009Z,53.18
2022-12-24T08:58:22.302Z,52.58
2022-12-24T09:00:50.767Z,52.59
2022-12-24T09:03:25.249Z,52.63
2022-12-24T09:05:56.196Z,52.33
2022-12-24T09:08:24.689Z,52.15
2022-12-24T09:10:53.203Z,52.21
2022-12-24T09:13:21.606Z,51.61
2022-12-24T09:15:54.948Z,51.47
2022-12-24T09:18:25.505Z,51.81
2022-12-24T09:21:06.412Z,51.75
2022-12-24T09:23:36.163Z,51.24
2022-12-24T09:26:06.667Z,51.36
2022-12-24T09:28:35.740Z,51.13
2022-12-24T09:31:05.868Z,52.15
2022-12-24T09:33:37.792Z,51.75
2022-12-24T09:36:07.012Z,53.11
2022-12-24T09:38:36.335Z,52.17
2022-12-24T09:41:13.183Z,53.22
2022-12-24T09:43:48.578Z,52.46
2022-12-24T09:46:30.730Z,52.15
2022-12-24T09:49:06.047Z,52.71
2022-12-24T09:52:02.071Z,51.86
2022-12-24T09:54:52.944Z,51.95
2022-12-24T09:57:34.587Z,51.98
2022-12-24T10:00:04.850Z,51.63
2022-12-24T10:02:33.673Z,52.98
2022-12-24T10:05:02.337Z,52.20
2022-12-24T10:07:48.213Z,51.46
2022-12-24T10:10:37.512Z,51.72
2022-12-24T10:13:23.181Z,51.65
2022-12-24T10:16:18.360Z,51.15
2022-12-24T10:19:02.755Z,51.42
2022-12-24T10:21:44.233Z,51.89
2022-12-24T10:24:24.229Z,51.98
2022-12-24T10:27:17.104Z,51.93
2022-12-24T10:29:49.570Z,52.19
2022-12-24T10:32:36.170Z,51.63
2022-12-24T10:35:17.832Z,51.29
2022-12-24T10:37:48.624Z,51.22
2022-12-24T10:40:28.653Z,51.42
2022-12-24T10:42:57.415Z,51.77
2022-12-24T10:45:35.590Z,51.37
2022-12-24T10:48:09.440Z,50.96
2022-12-24T10:50:43.148Z,50.96
2022-12-24T10:53:21.406Z,51.55
2022-12-24T10:55:50.055Z,51.93
2022-12-24T10:58:20.100Z,51.29
2022-12-24T11:00:53.073Z,51.05
2022-12-24T11:03:30.646Z,50.67
2022-12-24T11:06:20.943Z,50.38
2022-12-24T11:08:50.459Z,50.12
2022-12-24T11:11:21.127Z,50.24
2022-12-24T11:13:50.597Z,50.31
2022-12-24T11:16:31.924Z,51.61
2022-12-24T11:19:04.156Z,50.85
2022-12-24T11:21:37.761Z,49.95
2022-12-24T11:24:12.261Z,50.33
2022-12-24T11:26:42.953Z,50.59
2022-12-24T11:29:28.501Z,51.01
2022-12-24T11:32:20.265Z,50.89
2022-12-24T11:34:49.094Z,51.01
2022-12-24T11:37:21.973Z,50.61
2022-12-24T11:40:02.044Z,50.73
2022-12-24T11:42:35.258Z,50.29
2022-12-24T11:45:36.111Z,50.63
2022-12-24T11:48:26.291Z,49.95
2022-12-24T11:51:06.186Z,50.72
2022-12-24T11:53:42.062Z,50.32
2022-12-24T11:56:30.976Z,49.78
2022-12-24T11:59:09.547Z,50.14
2022-12-24T12:01:49.303Z,49.63
2022-12-24T12:04:22.875Z,52.10
2022-12-24T12:07:00.299Z,51.61
2022-12-24T12:09:32.841Z,50.34
2022-12-24T12:12:09.681Z,51.14
2022-12-24T12:14:48.089Z,50.63
2022-12-24T12:17:39.746Z,50.30
2022-12-24T12:20:18.784Z,50.09
2022-12-24T12:22:56.524Z,50.81
2022-12-24T12:25:37.942Z,49.96
2022-12-24T12:28:18.659Z,49.94
2022-12-24T12:30:54.359Z,51.29
2022-12-24T12:33:29.579Z,50.69
2022-12-24T12:36:01.890Z,50.75
2022-12-24T12:38:30.697Z,50.02
2022-12-24T12:41:11.917Z,49.93
2022-12-24T12:43:49.310Z,50.57
2022-12-24T12:46:41.741Z,49.53
2022-12-24T12:49:52.032Z,48.34
2022-12-24T12:52:49.180Z,49.19
2022-12-24T12:55:52.084Z,48.99
2022-12-24T12:58:27.475Z,48.49
2022-12-24T13:01:05.346Z,48.58
2022-12-24T13:03:42.673Z,49.09
2022-12-24T13:06:33.781Z,47.77
2022-12-24T13:09:25.643Z,48.29
2022-12-24T13:12:03.252Z,48.62
2022-12-24T13:14:43.795Z,48.89
2022-12-24T13:17:46.409Z,48.74
2022-12-24T13:20:30.688Z,50.05
2022-12-24T13:23:08.667Z,48.35
2022-12-24T13:25:41.450Z,47.69
2022-12-24T13:28:22.795Z,47.42
2022-12-24T13:31:16.983Z,47.21
2022-12-24T13:33:47.486Z,47.63
2022-12-24T13:36:17.685Z,47.26
2022-12-24T13:38:59.951Z,47.54
2022-12-24T13:41:39.257Z,47.64
2022-12-24T13:44:14.748Z,47.53
2022-12-24T13:47:01.108Z,47.30
2022-12-24T13:49:49.599Z,47.63
2022-12-24T13:52:30.501Z,47.84
2022-12-24T13:54:59.084Z,47.64
2022-12-24T13:58:07.722Z,47.17
2022-12-24T14:00:51.569Z,47.44
2022-12-24T14:03:28.521Z,47.41
2022-12-24T14:06:05.473Z,47.34
2022-12-24T14:08:40.235Z,47.14
2022-12-24T14:11:08.613Z,47.68
2022-12-24T14:13:40.019Z,47.44
2022-12-24T14:16:12.993Z,47.26
2022-12-24T14:18:50.580Z,47.34
2022-12-24T14:21:28.488Z,47.35
2022-12-24T14:24:05.281Z,46.84
2022-12-24T14:26:36.374Z,47.80
2022-12-24T14:29:25.048Z,47.46
2022-12-24T14:31:56.595Z,47.66
2022-12-24T14:34:26.424Z,47.37
2022-12-24T14:36:56.363Z,47.14
2022-12-24T14:39:33.909Z,47.05
2022-12-24T14:42:23.602Z,46.82
2022-12-24T14:45:14.919Z,47.01
2022-12-24T14:47:49.192Z,47.34
2022-12-24T14:50:26.871Z,47.21
2022-12-24T14:53:19.946Z,47.46
2022-12-24T14:55:49.645Z,47.83
2022-12-24T14:58:30.520Z,47.38
2022-12-24T15:01:02.077Z,47.34
2022-12-24T15:03:33.109Z,47.48
2022-12-24T15:06:09.181Z,47.24
2022-12-24T15:08:43.824Z,47.49
2022-12-24T15:11:19.377Z,47.35
2022-12-24T15:13:54.807Z,47.50
2022-12-24T15:16:27.112Z,47.78
2022-12-24T15:18:59.750Z,48.04
2022-12-24T15:21:41.207Z,47.83
2022-12-24T15:24:33.174Z,47.46
2022-12-24T15:27:16.049Z,47.58
2022-12-24T15:29:46.971Z,48.04
2022-12-24T15:32:18.954Z,48.08
2022-12-24T15:34:50.524Z,48.09
2022-12-24T15:37:29.612Z,48.42
2022-12-24T15:40:09.018Z,48.29
2022-12-24T15:42:42.518Z,48.45
2022-12-24T15:45:28.788Z,48.18
2022-12-24T15:48:00.459Z,48.73
2022-12-24T15:50:32.933Z,48.97
2022-12-24T15:53:21.097Z,48.87
2022-12-24T15:56:12.112Z,48.87
2022-12-24T15:58:43.353Z,49.34
2022-12-24T16:01:15.585Z,48.94
2022-12-24T16:03:50.316Z,48.90
2022-12-24T16:06:20.012Z,48.88
2022-12-24T16:08:50.930Z,49.02
2022-12-24T16:11:20.789Z,48.70
2022-12-24T16:13:49.135Z,48.64
2022-12-24T16:16:22.539Z,48.88
2022-12-24T16:18:56.991Z,48.61
2022-12-24T16:21:31.987Z,48.93
2022-12-24T16:24:22.535Z,49.05
2022-12-24T16:26:51.809Z,49.09
2022-12-24T16:29:22.404Z,48.90
2022-12-24T16:31:56.232Z,49.54
2022-12-24T16:34:30.117Z,49.37
2022-12-24T16:37:00.287Z,49.52
2022-12-24T16:39:33.838Z,49.76
2022-12-24T16:42:22.611Z,49.86
2022-12-24T16:44:53.473Z,49.78
2022-12-24T16:47:25.786Z,50.11
2022-12-24T16:49:54.350Z,50.14
2022-12-24T16:52:28.994Z,50.43
2022-12-24T16:54:57.777Z,50.80
2022-12-24T16:57:26.769Z,50.40
2022-12-24T16:59:55.229Z,50.76
2022-12-24T17:02:25.424Z,50.74
2022-12-24T17:04:55.166Z,50.35
2022-12-24T17:07:23.722Z,50.71
2022-12-24T17:09:52.269Z,50.45
2022-12-24T17:12:21.641Z,50.24
2022-12-24T17:14:50.111Z,50.04
2022-12-24T17:17:29.684Z,50.23
2022-12-24T17:19:58.499Z,50.47
2022-12-24T17:22:28.047Z,50.65
2022-12-24T17:24:56.912Z,50.86
2022-12-24T17:27:25.420Z,50.74
2022-12-24T17:29:54.048Z,50.60
2022-12-24T17:32:22.573Z,50.21
2022-12-24T17:34:50.966Z,49.96
2022-12-24T17:37:19.668Z,49.79
2022-12-24T17:39:49.144Z,50.11
2022-12-24T17:42:17.653Z,50.57
2022-12-24T17:44:46.161Z,50.67
2022-12-24T17:47:14.741Z,50.79
2022-12-24T17:49:43.234Z,51.16
2022-12-24T17:52:12.206Z,51.00
2022-12-24T17:54:40.665Z,51.16
2022-12-24T17:57:09.189Z,50.52
2022-12-24T17:59:37.692Z,50.43
2022-12-24T18:02:06.735Z,50.21
2022-12-24T18:04:35.275Z,50.43
2022-12-24T18:07:03.774Z,50.45
2022-12-24T18:09:32.343Z,50.23
2022-12-24T18:12:01.146Z,50.30
2022-12-24T18:14:29.579Z,50.76
2022-12-24T18:16:58.038Z,50.36
2022-12-24T18:19:26.705Z,50.62
2022-12-24T18:21:55.219Z,50.66
2022-12-24T18:24:23.696Z,50.44
2022-12-24T18:26:52.158Z,49.91
2022-12-24T18:29:20.703Z,49.56
2022-12-24T18:31:49.218Z,49.82
2022-12-24T18:34:18.301Z,49.77
2022-12-24T18:36:52.888Z,49.78
2022-12-24T18:39:23.548Z,50.36
2022-12-24T18:41:52.147Z,50.35
2022-12-24T18:44:25.408Z,50.63
2022-12-24T18:46:54.405Z,50.83
2022-12-24T18:49:23.027Z,50.65
2022-12-24T18:51:51.547Z,51.13
2022-12-24T18:54:20.278Z,51.14
2022-12-24T18:56:51.872Z,51.17
2022-12-24T18:59:20.359Z,51.15
2022-12-24T19:01:49.126Z,50.69
2022-12-24T19:04:17.880Z,50.58
2022-12-24T19:06:52.742Z,50.56
2022-12-24T19:09:22.481Z,50.35
2022-12-24T19:11:50.942Z,50.52
2022-12-24T19:14:22.683Z,50.85
2022-12-24T19:16:51.220Z,51.26
2022-12-24T19:19:23.900Z,50.65
2022-12-24T19:21:52.362Z,50.85
2022-12-24T19:24:20.851Z,50.81
2022-12-24T19:26:49.471Z,50.85
2022-12-24T19:29:17.956Z,50.86
2022-12-24T19:31:47.495Z,51.05
2022-12-24T19:34:16.133Z,50.62
2022-12-24T19:36:44.663Z,50.42
2022-12-24T19:39:13.125Z,50.64
2022-12-24T19:41:41.960Z,50.91
2022-12-24T19:44:11.146Z,50.80
2022-12-24T19:46:40.057Z,50.59
2022-12-24T19:49:11.288Z,50.29
2022-12-24T19:51:39.876Z,50.63
2022-12-24T19:54:18.685Z,50.67
2022-12-24T19:56:47.754Z,50.80
2022-12-24T19:59:16.426Z,50.84
2022-12-24T20:01:46.982Z,50.86
2022-12-24T20:04:18.382Z,50.95
2022-12-24T20:06:49.815Z,51.07
2022-12-24T20:09:20.782Z,51.21
2022-12-24T20:11:52.351Z,51.14
2022-12-24T20:14:20.757Z,51.08
2022-12-24T20:16:50.000Z,50.85
2022-12-24T20:19:18.492Z,50.84
2022-12-24T20:21:46.969Z,50.98
2022-12-24T20:24:16.020Z,51.14
2022-12-24T20:26:44.511Z,51.03
2022-12-24T20:29:13.045Z,51.24
2022-12-24T20:31:41.709Z,51.47
2022-12-24T20:34:10.583Z,51.33
2022-12-24T20:36:39.212Z,51.47
2022-12-24T20:39:07.915Z,51.50
2022-12-24T20:41:36.523Z,51.28
2022-12-24T20:44:05.619Z,51.37
2022-12-24T20:46:34.216Z,51.46
2022-12-24T20:49:02.812Z,51.59
2022-12-24T20:51:31.462Z,51.77
2022-12-24T20:54:01.873Z,51.71
2022-12-24T20:56:31.121Z,51.58
2022-12-24T20:59:01.441Z,51.16
2022-12-24T21:01:30.247Z,51.44
2022-12-24T21:04:04.234Z,51.49
2022-12-24T21:06:34.814Z,51.58
2022-12-24T21:09:04.107Z,51.27
2022-12-24T21:11:51.330Z,51.39
2022-12-24T21:14:23.548Z,51.56
2022-12-24T21:16:52.796Z,50.77
2022-12-24T21:19:24.491Z,51.16
2022-12-24T21:21:53.272Z,51.11
2022-12-24T21:24:21.913Z,51.57
2022-12-24T21:26:50.389Z,51.71
2022-12-24T21:29:18.877Z,51.58
2022-12-24T21:31:47.464Z,51.09
2022-12-24T21:34:15.883Z,51.65
2022-12-24T21:36:44.246Z,51.62
2022-12-24T21:39:12.752Z,51.42
2022-12-24T21:41:41.703Z,51.54
2022-12-24T21:44:10.230Z,51.26
2022-12-24T21:46:38.696Z,50.96
2022-12-24T21:49:28.369Z,51.59
2022-12-24T21:51:58.824Z,51.43
2022-12-24T21:54:28.375Z,51.32
2022-12-24T21:57:18.956Z,51.44
2022-12-24T21:59:50.330Z,51.86
2022-12-24T22:02:20.386Z,52.34
2022-12-24T22:04:48.892Z,52.05
2022-12-24T22:07:41.975Z,51.77
2022-12-24T22:10:31.852Z,51.91
2022-12-24T22:13:03.554Z,52.12
2022-12-24T22:15:32.331Z,51.84
2022-12-24T22:18:00.714Z,51.93
2022-12-24T22:20:29.262Z,52.08
2022-12-24T22:22:57.735Z,51.99
2022-12-24T22:25:28.108Z,51.75
2022-12-24T22:27:56.708Z,52.16
2022-12-24T22:30:25.099Z,52.05
2022-12-24T22:32:53.527Z,51.92
2022-12-24T22:35:21.909Z,52.04
2022-12-24T22:37:54.572Z,51.92
2022-12-24T22:40:28.385Z,51.85
2022-12-24T22:42:56.867Z,52.02
2022-12-24T22:45:25.271Z,51.91
2022-12-24T22:47:53.787Z,52.22
2022-12-24T22:50:22.891Z,51.83
2022-12-24T22:52:52.560Z,51.85
2022-12-24T22:55:21.792Z,51.66
2022-12-24T22:57:50.209Z,51.50
2022-12-24T23:00:40.487Z,51.77
2022-12-24T23:03:10.223Z,52.00
2022-12-24T23:05:39.163Z,51.76
2022-12-24T23:08:08.197Z,51.75
2022-12-24T23:10:37.350Z,51.69
2022-12-24T23:13:44.834Z,51.94
2022-12-24T23:16:13.288Z,51.83
2022-12-24T23:18:41.671Z,51.70
2022-12-24T23:21:10.151Z,51.62
2022-12-24T23:23:38.618Z,51.61
2022-12-24T23:26:12.956Z,51.70
2022-12-24T23:28:41.667Z,51.90
2022-12-24T23:31:10.758Z,51.92
2022-12-24T23:33:39.374Z,51.55
2022-12-24T23:36:08.804Z,51.65
2022-12-24T23:38:37.405Z,51.69
2022-12-24T23:41:08.032Z,51.75
2022-12-24T23:43:37.535Z,51.54
2022-12-24T23:46:06.177Z,51.93
2022-12-24T23:48:34.678Z,51.61
2022-12-24T23:51:13.374Z,51.64
2022-12-24T23:53:41.911Z,51.42
2022-12-24T23:56:11.706Z,51.91
2022-12-24T23:58:41.506Z,51.60
